createdAt,value
2018-08-06T00:00:14.149Z,30.43
2018-08-06T00:00:54.958Z,30.32
2018-08-06T00:01:35.749Z,30.54
2018-08-06T00:02:16.550Z,30.46
2018-08-06T00:02:57.346Z,30.53
2018-08-06T00:03:38.175Z,30.51
2018-08-06T00:04:18.976Z,30.57
2018-08-06T00:04:59.747Z,30.61
2018-08-06T00:05:40.564Z,30.58
2018-08-06T00:06:21.350Z,30.55
2018-08-06T00:07:02.111Z,30.49
2018-08-06T00:07:42.894Z,30.45
2018-08-06T00:08:23.681Z,30.31
2018-08-06T00:09:04.508Z,30.24
2018-08-06T00:09:45.301Z,30.31
2018-08-06T00:10:26.113Z,30.32
2018-08-06T00:11:06.908Z,30.34
2018-08-06T00:11:47.735Z,30.43
2018-08-06T00:12:28.578Z,30.43
2018-08-06T00:13:09.316Z,30.43
2018-08-06T00:13:50.131Z,30.17
2018-08-06T00:14:30.979Z,30.24
2018-08-06T00:15:11.739Z,30.23
2018-08-06T00:15:52.496Z,30.31
2018-08-06T00:16:33.254Z,30.35
2018-08-06T00:17:14.061Z,30.42
2018-08-06T00:17:54.870Z,30.42
2018-08-06T00:18:35.721Z,30.31
2018-08-06T00:19:16.474Z,30.47
2018-08-06T00:19:57.247Z,30.58
2018-08-06T00:20:38.011Z,30.57
2018-08-06T00:21:18.793Z,30.62
2018-08-06T00:21:59.648Z,30.61
2018-08-06T00:22:40.429Z,30.75
2018-08-06T00:23:21.233Z,30.67
2018-08-06T00:24:02.090Z,30.58
2018-08-06T00:24:42.872Z,30.62
2018-08-06T00:25:23.725Z,30.64
2018-08-06T00:26:04.515Z,30.51
2018-08-06T00:26:45.300Z,30.51
2018-08-06T00:27:26.078Z,30.35
2018-08-06T00:28:06.864Z,30.34
2018-08-06T00:28:47.715Z,30.42
2018-08-06T00:29:28.601Z,30.45
2018-08-06T00:30:10.915Z,30.39
2018-08-06T00:30:51.686Z,30.45
2018-08-06T00:31:32.507Z,30.39
2018-08-06T00:32:13.265Z,30.34
2018-08-06T00:32:54.027Z,30.49
2018-08-06T00:33:34.782Z,30.54
2018-08-06T00:34:15.560Z,30.58
2018-08-06T00:34:56.424Z,30.57
2018-08-06T00:35:37.248Z,30.61
2018-08-06T00:36:18.106Z,30.73
2018-08-06T00:36:58.867Z,30.65
2018-08-06T00:37:39.598Z,30.72
2018-08-06T00:38:20.392Z,30.64
2018-08-06T00:39:01.194Z,30.67
2018-08-06T00:39:42.047Z,30.7
2018-08-06T00:40:22.867Z,30.82
2018-08-06T00:41:03.677Z,30.72
2018-08-06T00:41:44.509Z,30.75
2018-08-06T00:42:25.326Z,30.86
2018-08-06T00:43:06.098Z,30.86
2018-08-06T00:43:46.864Z,30.77
2018-08-06T00:44:27.667Z,30.77
2018-08-06T00:45:08.455Z,30.77
2018-08-06T00:45:49.195Z,30.76
2018-08-06T00:46:29.994Z,30.76
2018-08-06T00:47:10.750Z,30.76
2018-08-06T00:47:51.553Z,30.83
2018-08-06T00:48:32.369Z,30.82
2018-08-06T00:49:13.149Z,30.86
2018-08-06T00:49:53.982Z,30.86
2018-08-06T00:50:34.858Z,30.83
2018-08-06T00:51:15.740Z,30.89
2018-08-06T00:51:56.580Z,30.86
2018-08-06T00:52:37.387Z,30.84
2018-08-06T00:53:18.295Z,30.92
2018-08-06T00:53:59.069Z,30.99
2018-08-06T00:54:39.966Z,30.89
2018-08-06T00:55:20.842Z,30.92
2018-08-06T00:56:01.728Z,30.94
2018-08-06T00:56:42.538Z,30.89
2018-08-06T00:57:23.389Z,30.86
2018-08-06T00:58:04.299Z,30.84
2018-08-06T00:58:45.282Z,30.88
2018-08-06T00:59:26.031Z,30.92
2018-08-06T01:00:06.791Z,30.92
2018-08-06T01:00:47.586Z,30.86
2018-08-06T01:01:28.459Z,30.88
2018-08-06T01:02:09.264Z,30.97
2018-08-06T01:02:50.040Z,30.88
2018-08-06T01:03:30.836Z,30.94
2018-08-06T01:04:11.664Z,30.95
2018-08-06T01:04:52.502Z,30.89
2018-08-06T01:05:33.311Z,30.84
2018-08-06T01:06:14.127Z,30.7
2018-08-06T01:06:54.911Z,30.6
2018-08-06T01:07:35.715Z,30.45
2018-08-06T01:08:16.552Z,30.51
2018-08-06T01:08:57.317Z,30.47
2018-08-06T01:09:38.130Z,30.51
2018-08-06T01:10:18.899Z,30.49
2018-08-06T01:10:59.684Z,30.53
2018-08-06T01:11:40.496Z,30.61
2018-08-06T01:12:21.367Z,30.55
2018-08-06T01:13:02.149Z,30.53
2018-08-06T01:13:42.930Z,30.47
2018-08-06T01:14:23.698Z,30.46
2018-08-06T01:15:04.551Z,30.45
2018-08-06T01:15:45.316Z,30.46
2018-08-06T01:16:26.085Z,30.42
2018-08-06T01:17:06.822Z,30.38
2018-08-06T01:17:47.597Z,30.49
2018-08-06T01:18:28.421Z,30.54
2018-08-06T01:19:09.171Z,30.46
2018-08-06T01:19:49.922Z,30.58
2018-08-06T01:20:30.777Z,30.54
2018-08-06T01:21:11.603Z,30.6
2018-08-06T01:21:52.426Z,30.67
2018-08-06T01:22:33.225Z,30.62
2018-08-06T01:23:14.036Z,30.64
2018-08-06T01:23:54.838Z,30.7
2018-08-06T01:24:35.610Z,30.69
2018-08-06T01:25:16.379Z,30.7
2018-08-06T01:25:57.140Z,30.7
2018-08-06T01:26:37.971Z,30.67
2018-08-06T01:27:18.759Z,30.69
2018-08-06T01:27:59.609Z,30.75
2018-08-06T01:28:40.393Z,30.65
2018-08-06T01:29:21.144Z,30.73
2018-08-06T01:30:01.974Z,30.75
2018-08-06T01:30:42.711Z,30.77
2018-08-06T01:31:23.541Z,30.77
2018-08-06T01:32:04.327Z,30.73
2018-08-06T01:32:45.091Z,30.69
2018-08-06T01:33:25.926Z,30.7
2018-08-06T01:34:06.766Z,30.67
2018-08-06T01:34:47.563Z,30.65
2018-08-06T01:35:28.327Z,30.67
2018-08-06T01:36:09.112Z,30.73
2018-08-06T01:36:49.916Z,30.69
2018-08-06T01:37:30.708Z,30.76
2018-08-06T01:38:11.540Z,30.73
2018-08-06T01:38:52.383Z,30.84
2018-08-06T01:39:33.215Z,30.82
2018-08-06T01:40:13.962Z,30.79
2018-08-06T01:40:54.794Z,30.7
2018-08-06T01:41:35.598Z,30.73
2018-08-06T01:42:16.399Z,30.84
2018-08-06T01:42:57.151Z,30.8
2018-08-06T01:43:37.905Z,30.82
2018-08-06T01:44:18.771Z,30.77
2018-08-06T01:44:59.548Z,30.7
2018-08-06T01:45:40.422Z,30.75
2018-08-06T01:46:21.141Z,30.77
2018-08-06T01:47:01.971Z,30.79
2018-08-06T01:47:42.713Z,30.73
2018-08-06T01:48:23.567Z,30.83
2018-08-06T01:49:04.377Z,30.83
2018-08-06T01:49:45.171Z,30.84
2018-08-06T01:50:25.956Z,30.84
2018-08-06T01:51:06.768Z,30.83
2018-08-06T01:51:47.564Z,30.72
2018-08-06T01:52:28.368Z,30.82
2018-08-06T01:53:09.122Z,30.75
2018-08-06T01:53:49.970Z,30.77
2018-08-06T01:54:30.739Z,30.79
2018-08-06T01:55:11.510Z,30.75
2018-08-06T01:55:52.341Z,30.76
2018-08-06T01:56:33.141Z,30.75
2018-08-06T01:57:13.954Z,30.75
2018-08-06T01:57:54.765Z,30.73
2018-08-06T01:58:35.585Z,30.77
2018-08-06T01:59:16.413Z,30.82
2018-08-06T01:59:57.192Z,30.7
2018-08-06T02:00:38.063Z,30.82
2018-08-06T02:01:18.880Z,30.82
2018-08-06T02:01:59.653Z,30.69
2018-08-06T02:02:40.450Z,30.73
2018-08-06T02:03:21.239Z,30.83
2018-08-06T02:04:02.129Z,30.88
2018-08-06T02:04:43.012Z,30.84
2018-08-06T02:05:23.804Z,30.82
2018-08-06T02:06:04.619Z,30.76
2018-08-06T02:06:45.405Z,30.72
2018-08-06T02:07:26.186Z,30.76
2018-08-06T02:08:07.007Z,30.82
2018-08-06T02:08:47.779Z,30.75
2018-08-06T02:09:28.539Z,30.72
2018-08-06T02:10:09.393Z,30.67
2018-08-06T02:10:50.134Z,30.65
2018-08-06T02:11:30.902Z,30.62
2018-08-06T02:12:11.698Z,30.46
2018-08-06T02:12:52.550Z,30.53
2018-08-06T02:13:33.367Z,30.46
2018-08-06T02:14:14.216Z,30.47
2018-08-06T02:14:54.991Z,30.29
2018-08-06T02:15:35.811Z,30.29
2018-08-06T02:16:16.605Z,30.32
2018-08-06T02:16:57.401Z,30.26
2018-08-06T02:17:38.179Z,30.31
2018-08-06T02:18:18.959Z,30.29
2018-08-06T02:18:59.751Z,30.23
2018-08-06T02:19:40.573Z,30.22
2018-08-06T02:20:21.404Z,30.23
2018-08-06T02:21:02.209Z,30.32
2018-08-06T02:21:42.995Z,30.39
2018-08-06T02:22:23.793Z,30.39
2018-08-06T02:23:04.537Z,30.37
2018-08-06T02:23:45.338Z,30.45
2018-08-06T02:24:26.155Z,30.51
2018-08-06T02:25:06.898Z,30.37
2018-08-06T02:25:47.759Z,30.47
2018-08-06T02:26:28.573Z,30.55
2018-08-06T02:27:09.428Z,30.49
2018-08-06T02:27:50.227Z,30.49
2018-08-06T02:28:30.998Z,30.46
2018-08-06T02:29:11.882Z,30.47
2018-08-06T02:29:52.686Z,30.37
2018-08-06T02:30:33.484Z,30.39
2018-08-06T02:31:14.238Z,30.46
2018-08-06T02:31:55.019Z,30.49
2018-08-06T02:32:35.857Z,30.49
2018-08-06T02:33:16.667Z,30.51
2018-08-06T02:33:57.397Z,30.47
2018-08-06T02:34:38.273Z,30.49
2018-08-06T02:35:19.100Z,30.51
2018-08-06T02:35:59.919Z,30.61
2018-08-06T02:36:40.715Z,30.58
2018-08-06T02:37:21.481Z,30.62
2018-08-06T02:38:02.269Z,30.58
2018-08-06T02:38:43.116Z,30.65
2018-08-06T02:39:23.926Z,30.61
2018-08-06T02:40:04.768Z,30.67
2018-08-06T02:40:45.532Z,30.69
2018-08-06T02:41:26.324Z,30.69
2018-08-06T02:42:07.182Z,30.62
2018-08-06T02:42:47.967Z,30.79
2018-08-06T02:43:28.762Z,30.86
2018-08-06T02:44:09.551Z,30.76
2018-08-06T02:44:50.424Z,30.75
2018-08-06T02:45:31.296Z,30.75
2018-08-06T02:46:12.166Z,30.84
2018-08-06T02:46:52.960Z,30.75
2018-08-06T02:47:33.765Z,30.83
2018-08-06T02:48:14.571Z,30.82
2018-08-06T02:48:55.311Z,30.75
2018-08-06T02:49:36.137Z,30.83
2018-08-06T02:50:16.927Z,30.84
2018-08-06T02:50:57.697Z,30.72
2018-08-06T02:51:38.488Z,30.83
2018-08-06T02:52:19.274Z,30.82
2018-08-06T02:53:00.132Z,30.76
2018-08-06T02:53:40.881Z,30.82
2018-08-06T02:54:21.620Z,30.8
2018-08-06T02:55:02.381Z,30.84
2018-08-06T02:55:43.146Z,30.8
2018-08-06T02:56:23.978Z,30.84
2018-08-06T02:57:04.822Z,30.79
2018-08-06T02:57:45.657Z,30.8
2018-08-06T02:58:26.427Z,30.86
2018-08-06T02:59:07.191Z,30.76
2018-08-06T02:59:48.009Z,30.76
2018-08-06T03:00:28.763Z,30.88
2018-08-06T03:01:09.565Z,30.79
2018-08-06T03:01:50.314Z,30.75
2018-08-06T03:02:31.152Z,30.8
2018-08-06T03:03:11.983Z,30.8
2018-08-06T03:03:52.738Z,30.77
2018-08-06T03:04:33.496Z,30.77
2018-08-06T03:05:14.360Z,30.8
2018-08-06T03:05:55.218Z,30.77
2018-08-06T03:06:36.047Z,30.79
2018-08-06T03:07:16.819Z,30.83
2018-08-06T03:07:57.638Z,30.84
2018-08-06T03:08:38.501Z,30.86
2018-08-06T03:09:19.287Z,30.86
2018-08-06T03:10:00.108Z,30.83
2018-08-06T03:10:40.994Z,30.83
2018-08-06T03:11:21.893Z,30.8
2018-08-06T03:12:02.648Z,30.83
2018-08-06T03:12:43.507Z,30.82
2018-08-06T03:13:24.281Z,30.89
2018-08-06T03:14:05.053Z,30.8
2018-08-06T03:14:45.821Z,30.83
2018-08-06T03:15:26.640Z,30.86
2018-08-06T03:16:07.451Z,30.83
2018-08-06T03:16:48.214Z,30.73
2018-08-06T03:17:29.029Z,30.82
2018-08-06T03:18:09.848Z,30.79
2018-08-06T03:18:50.655Z,30.76
2018-08-06T03:19:31.515Z,30.82
2018-08-06T03:20:12.309Z,30.84
2018-08-06T03:20:53.087Z,30.79
2018-08-06T03:21:33.905Z,30.76
2018-08-06T03:22:14.668Z,30.77
2018-08-06T03:22:55.546Z,30.79
2018-08-06T03:23:36.377Z,30.8
2018-08-06T03:24:17.155Z,30.8
2018-08-06T03:24:57.965Z,30.79
2018-08-06T03:25:38.781Z,30.86
2018-08-06T03:26:19.597Z,30.86
2018-08-06T03:27:00.324Z,30.8
2018-08-06T03:27:41.114Z,30.83
2018-08-06T03:28:21.906Z,30.76
2018-08-06T03:29:02.764Z,30.84
2018-08-06T03:29:43.599Z,30.77
2018-08-06T03:30:24.408Z,30.75
2018-08-06T03:31:05.276Z,30.7
2018-08-06T03:31:46.078Z,30.75
2018-08-06T03:32:26.870Z,30.72
2018-08-06T03:33:07.660Z,30.79
2018-08-06T03:33:48.528Z,30.75
2018-08-06T03:34:29.329Z,30.72
2018-08-06T03:35:10.161Z,30.79
2018-08-06T03:35:50.970Z,30.75
2018-08-06T03:36:31.798Z,30.73
2018-08-06T03:37:12.582Z,30.73
2018-08-06T03:37:53.356Z,30.77
2018-08-06T03:38:34.188Z,30.73
2018-08-06T03:39:15.030Z,30.72
2018-08-06T03:39:55.789Z,30.65
2018-08-06T03:40:36.544Z,30.82
2018-08-06T03:41:17.311Z,30.8
2018-08-06T03:41:58.137Z,30.76
2018-08-06T03:42:38.943Z,30.72
2018-08-06T03:43:19.734Z,30.69
2018-08-06T03:44:00.495Z,30.76
2018-08-06T03:44:41.380Z,30.72
2018-08-06T03:45:22.202Z,30.7
2018-08-06T03:46:02.985Z,30.82
2018-08-06T03:46:43.743Z,30.73
2018-08-06T03:47:24.529Z,30.72
2018-08-06T03:48:05.314Z,30.75
2018-08-06T03:48:46.155Z,30.76
2018-08-06T03:49:26.973Z,30.77
2018-08-06T03:50:07.788Z,30.75
2018-08-06T03:50:48.548Z,30.79
2018-08-06T03:51:29.379Z,30.75
2018-08-06T03:52:10.203Z,30.82
2018-08-06T03:52:51.042Z,30.73
2018-08-06T03:53:31.784Z,30.8
2018-08-06T03:54:12.556Z,30.84
2018-08-06T03:54:53.350Z,30.82
2018-08-06T03:55:34.182Z,30.75
2018-08-06T03:56:15.021Z,30.84
2018-08-06T03:56:55.808Z,30.83
2018-08-06T03:57:36.588Z,30.86
2018-08-06T03:58:17.328Z,30.75
2018-08-06T03:58:58.112Z,30.77
2018-08-06T03:59:38.963Z,30.82
2018-08-06T04:00:19.743Z,30.83
2018-08-06T04:01:00.512Z,30.75
2018-08-06T04:01:41.364Z,30.75
2018-08-06T04:02:22.142Z,30.73
2018-08-06T04:03:02.966Z,30.79
2018-08-06T04:03:43.709Z,30.84
2018-08-06T04:04:24.457Z,30.86
2018-08-06T04:05:05.214Z,30.76
2018-08-06T04:05:45.967Z,30.83
2018-08-06T04:06:26.809Z,30.73
2018-08-06T04:07:07.659Z,30.82
2018-08-06T04:07:48.445Z,30.86
2018-08-06T04:08:29.210Z,30.86
2018-08-06T04:09:10.025Z,30.82
2018-08-06T04:09:50.840Z,30.84
2018-08-06T04:10:31.658Z,30.86
2018-08-06T04:11:12.463Z,30.79
2018-08-06T04:11:53.270Z,30.72
2018-08-06T04:12:34.102Z,30.84
2018-08-06T04:13:14.884Z,30.75
2018-08-06T04:13:55.687Z,30.86
2018-08-06T04:14:36.568Z,30.86
2018-08-06T04:15:17.357Z,30.86
2018-08-06T04:15:58.200Z,30.76
2018-08-06T04:16:38.952Z,30.84
2018-08-06T04:17:19.737Z,30.82
2018-08-06T04:18:00.597Z,30.76
2018-08-06T04:18:41.390Z,30.76
2018-08-06T04:19:22.128Z,30.83
2018-08-06T04:20:02.882Z,30.79
2018-08-06T04:20:43.638Z,30.8
2018-08-06T04:21:24.480Z,30.76
2018-08-06T04:22:05.286Z,30.7
2018-08-06T04:22:46.171Z,30.75
2018-08-06T04:23:28.924Z,30.77
2018-08-06T04:24:09.656Z,30.84
2018-08-06T04:24:50.462Z,30.72
2018-08-06T04:25:31.292Z,30.75
2018-08-06T04:26:12.044Z,30.76
2018-08-06T04:26:52.830Z,30.82
2018-08-06T04:27:33.640Z,30.76
2018-08-06T04:28:14.447Z,30.8
2018-08-06T04:28:55.292Z,30.72
2018-08-06T04:29:36.056Z,30.72
2018-08-06T04:30:16.885Z,30.77
2018-08-06T04:30:57.681Z,30.69
2018-08-06T04:31:38.487Z,30.73
2018-08-06T04:32:19.290Z,30.77
2018-08-06T04:33:00.092Z,30.7
2018-08-06T04:33:40.901Z,30.72
2018-08-06T04:34:21.760Z,30.75
2018-08-06T04:35:02.569Z,30.82
2018-08-06T04:35:43.357Z,30.82
2018-08-06T04:36:24.191Z,30.82
2018-08-06T04:37:05.010Z,30.8
2018-08-06T04:37:45.853Z,30.79
2018-08-06T04:38:26.729Z,30.86
2018-08-06T04:39:07.501Z,30.72
2018-08-06T04:39:48.234Z,30.86
2018-08-06T04:40:29.050Z,30.84
2018-08-06T04:41:09.863Z,30.83
2018-08-06T04:41:50.628Z,30.82
2018-08-06T04:42:31.476Z,30.72
2018-08-06T04:43:12.272Z,30.79
2018-08-06T04:43:53.081Z,30.84
2018-08-06T04:44:33.912Z,30.84
2018-08-06T04:45:14.701Z,30.73
2018-08-06T04:45:55.515Z,30.83
2018-08-06T04:46:36.251Z,30.75
2018-08-06T04:47:17.082Z,30.82
2018-08-06T04:47:57.884Z,30.8
2018-08-06T04:48:38.676Z,30.73
2018-08-06T04:49:19.481Z,30.84
2018-08-06T04:50:00.309Z,30.84
2018-08-06T04:50:41.123Z,30.7
2018-08-06T04:51:21.913Z,30.8
2018-08-06T04:52:02.730Z,30.82
2018-08-06T04:52:43.544Z,30.73
2018-08-06T04:53:24.408Z,30.84
2018-08-06T04:54:05.165Z,30.76
2018-08-06T04:54:46.002Z,30.73
2018-08-06T04:55:26.790Z,30.79
2018-08-06T04:56:07.563Z,30.84
2018-08-06T04:56:48.411Z,30.88
2018-08-06T04:57:29.248Z,30.82
2018-08-06T04:58:10.055Z,30.86
2018-08-06T04:58:58.454Z,30.86
2018-08-06T04:59:39.221Z,30.82
2018-08-06T05:00:20.014Z,30.86
2018-08-06T05:01:00.841Z,30.75
2018-08-06T05:01:41.602Z,30.8
2018-08-06T05:02:22.376Z,30.76
2018-08-06T05:03:03.161Z,30.73
2018-08-06T05:03:43.939Z,30.77
2018-08-06T05:04:24.780Z,30.83
2018-08-06T05:05:05.568Z,30.75
2018-08-06T05:05:46.342Z,30.79
2018-08-06T05:06:27.141Z,30.79
2018-08-06T05:07:07.938Z,30.75
2018-08-06T05:07:48.756Z,30.77
2018-08-06T05:08:29.649Z,30.77
2018-08-06T05:09:10.432Z,30.79
2018-08-06T05:09:51.240Z,30.77
2018-08-06T05:10:32.083Z,30.77
2018-08-06T05:11:12.873Z,30.79
2018-08-06T05:11:53.654Z,30.73
2018-08-06T05:12:34.456Z,30.77
2018-08-06T05:13:15.335Z,30.76
2018-08-06T05:13:56.194Z,30.77
2018-08-06T05:14:36.984Z,30.73
2018-08-06T05:15:17.888Z,30.79
2018-08-06T05:15:58.676Z,30.8
2018-08-06T05:16:39.456Z,30.75
2018-08-06T05:17:20.235Z,30.76
2018-08-06T05:18:01.039Z,30.82
2018-08-06T05:18:41.918Z,30.8
2018-08-06T05:19:22.688Z,30.8
2018-08-06T05:20:03.464Z,30.73
2018-08-06T05:20:47.295Z,30.75
2018-08-06T05:21:28.137Z,30.82
2018-08-06T05:22:08.918Z,30.77
2018-08-06T05:22:49.799Z,30.76
2018-08-06T05:23:30.647Z,30.86
2018-08-06T05:24:11.449Z,30.7
2018-08-06T05:24:52.276Z,30.84
2018-08-06T05:25:32.929Z,30.73
2018-08-06T05:26:13.721Z,30.84
2018-08-06T05:26:54.599Z,30.8
2018-08-06T05:27:35.416Z,30.73
2018-08-06T05:28:16.225Z,30.77
2018-08-06T05:28:57.016Z,30.69
2018-08-06T05:29:37.853Z,30.77
2018-08-06T05:30:18.757Z,30.88
2018-08-06T05:30:59.503Z,30.73
2018-08-06T05:31:40.287Z,30.76
2018-08-06T05:32:21.049Z,30.73
2018-08-06T05:33:01.818Z,30.69
2018-08-06T05:33:42.691Z,30.62
2018-08-06T05:34:23.508Z,30.69
2018-08-06T05:35:04.362Z,30.69
2018-08-06T05:35:45.115Z,30.73
2018-08-06T05:36:25.891Z,30.75
2018-08-06T05:37:06.739Z,30.67
2018-08-06T05:37:47.551Z,30.61
2018-08-06T05:38:28.347Z,30.75
2018-08-06T05:39:09.122Z,30.7
2018-08-06T05:39:49.904Z,30.69
2018-08-06T05:40:30.726Z,30.69
2018-08-06T05:41:11.580Z,30.69
2018-08-06T05:41:54.890Z,30.7
2018-08-06T05:42:35.643Z,30.7
2018-08-06T05:43:17.043Z,30.65
2018-08-06T05:43:57.865Z,30.67
2018-08-06T05:44:38.711Z,30.75
2018-08-06T05:45:19.439Z,30.65
2018-08-06T05:46:00.252Z,30.67
2018-08-06T05:46:41.103Z,30.67
2018-08-06T05:47:21.929Z,30.65
2018-08-06T05:48:02.672Z,30.69
2018-08-06T05:48:43.443Z,30.65
2018-08-06T05:49:24.233Z,30.67
2018-08-06T05:50:04.971Z,30.64
2018-08-06T05:50:45.801Z,30.58
2018-08-06T05:51:26.600Z,30.64
2018-08-06T05:52:07.425Z,30.62
2018-08-06T05:52:48.222Z,30.72
2018-08-06T05:53:29.001Z,30.64
2018-08-06T05:54:09.824Z,30.7
2018-08-06T05:54:50.582Z,30.65
2018-08-06T05:55:31.377Z,30.72
2018-08-06T05:56:12.157Z,30.7
2018-08-06T05:56:52.958Z,30.65
2018-08-06T05:57:33.784Z,30.73
2018-08-06T05:58:14.607Z,30.67
2018-08-06T05:58:55.362Z,30.77
2018-08-06T05:59:36.229Z,30.72
2018-08-06T06:00:17.032Z,30.72
2018-08-06T06:00:57.839Z,30.8
2018-08-06T06:01:38.654Z,30.82
2018-08-06T06:02:19.413Z,30.77
2018-08-06T06:03:00.278Z,30.82
2018-08-06T06:03:41.012Z,30.73
2018-08-06T06:04:21.770Z,30.84
2018-08-06T06:05:02.501Z,30.84
2018-08-06T06:05:43.293Z,30.8
2018-08-06T06:06:24.164Z,30.83
2018-08-06T06:07:05.046Z,30.86
2018-08-06T06:07:45.792Z,30.83
2018-08-06T06:08:26.582Z,30.84
2018-08-06T06:09:07.339Z,30.8
2018-08-06T06:09:48.169Z,30.86
2018-08-06T06:10:28.987Z,30.82
2018-08-06T06:11:09.822Z,30.79
2018-08-06T06:11:50.612Z,30.84
2018-08-06T06:12:31.469Z,30.83
2018-08-06T06:13:12.310Z,30.76
2018-08-06T06:13:53.209Z,30.73
2018-08-06T06:14:33.997Z,30.8
2018-08-06T06:15:14.854Z,30.83
2018-08-06T06:15:55.687Z,30.8
2018-08-06T06:16:36.501Z,30.79
2018-08-06T06:17:17.366Z,30.77
2018-08-06T06:17:58.531Z,30.91
2018-08-06T06:18:40.330Z,30.88
2018-08-06T06:19:21.066Z,30.88
2018-08-06T06:20:01.881Z,30.83
2018-08-06T06:20:42.630Z,30.92
2018-08-06T06:21:23.362Z,30.86
2018-08-06T06:22:04.098Z,30.98
2018-08-06T06:22:44.894Z,30.99
2018-08-06T06:23:25.823Z,30.92
2018-08-06T06:24:06.619Z,30.98
2018-08-06T06:24:47.471Z,30.98
2018-08-06T06:25:28.194Z,31.04
2018-08-06T06:26:08.971Z,31.09
2018-08-06T06:26:49.657Z,31.14
2018-08-06T06:27:30.464Z,31.2
2018-08-06T06:28:11.269Z,31.17
2018-08-06T06:28:52.038Z,31.26
2018-08-06T06:29:32.834Z,31.31
2018-08-06T06:30:13.682Z,31.29
2018-08-06T06:30:54.490Z,31.43
2018-08-06T06:31:35.330Z,31.51
2018-08-06T06:32:16.081Z,31.57
2018-08-06T06:32:56.945Z,31.56
2018-08-06T06:33:37.797Z,31.76
2018-08-06T06:34:18.571Z,31.81
2018-08-06T06:34:59.308Z,31.85
2018-08-06T06:35:40.091Z,31.96
2018-08-06T06:36:20.910Z,31.95
2018-08-06T06:37:01.733Z,32
2018-08-06T06:37:42.527Z,32.03
2018-08-06T06:38:23.367Z,32.07
2018-08-06T06:39:04.196Z,32.25
2018-08-06T06:39:45.067Z,32.15
2018-08-06T06:40:25.763Z,32.3
2018-08-06T06:41:06.470Z,32.26
2018-08-06T06:41:47.172Z,32.29
2018-08-06T06:42:27.910Z,32.3
2018-08-06T06:43:08.771Z,32.37
2018-08-06T06:43:49.606Z,32.33
2018-08-06T06:44:30.433Z,32.35
2018-08-06T06:45:11.198Z,32.45
2018-08-06T06:45:52.007Z,32.48
2018-08-06T06:46:32.875Z,32.51
2018-08-06T06:47:13.658Z,32.62
2018-08-06T06:47:54.377Z,32.55
2018-08-06T06:48:35.160Z,32.6
2018-08-06T06:49:16.023Z,32.69
2018-08-06T06:49:56.795Z,32.59
2018-08-06T06:50:37.551Z,32.6
2018-08-06T06:51:18.286Z,32.63
2018-08-06T06:51:59.157Z,32.66
2018-08-06T06:52:39.944Z,32.65
2018-08-06T06:53:20.741Z,32.72
2018-08-06T06:54:01.506Z,32.69
2018-08-06T06:54:42.309Z,32.7
2018-08-06T06:55:23.127Z,32.82
2018-08-06T06:56:03.925Z,32.69
2018-08-06T06:56:44.712Z,32.84
2018-08-06T06:57:25.486Z,32.89
2018-08-06T06:58:06.356Z,32.93
2018-08-06T06:58:47.172Z,32.99
2018-08-06T06:59:27.997Z,32.97
2018-08-06T07:00:08.774Z,32.89
2018-08-06T07:00:49.505Z,32.96
2018-08-06T07:01:30.287Z,32.94
2018-08-06T07:02:11.034Z,33.07
2018-08-06T07:02:51.885Z,33.06
2018-08-06T07:03:32.627Z,33.04
2018-08-06T07:04:13.430Z,33.14
2018-08-06T07:04:54.270Z,33.03
2018-08-06T07:05:35.035Z,33.01
2018-08-06T07:06:15.917Z,33.09
2018-08-06T07:06:56.674Z,33.11
2018-08-06T07:07:37.457Z,33.15
2018-08-06T07:08:18.314Z,33.12
2018-08-06T07:08:59.046Z,33.19
2018-08-06T07:09:39.815Z,33.16
2018-08-06T07:10:20.546Z,33.21
2018-08-06T07:11:01.326Z,33.23
2018-08-06T07:11:42.138Z,33.34
2018-08-06T07:12:22.847Z,33.34
2018-08-06T07:13:03.615Z,33.39
2018-08-06T07:13:44.499Z,33.39
2018-08-06T07:14:25.267Z,33.42
2018-08-06T07:15:06.058Z,33.53
2018-08-06T07:15:46.795Z,33.37
2018-08-06T07:16:27.557Z,33.42
2018-08-06T07:17:08.316Z,33.42
2018-08-06T07:17:49.128Z,33.35
2018-08-06T07:18:30.000Z,33.31
2018-08-06T07:19:10.871Z,33.29
2018-08-06T07:19:51.608Z,33.29
2018-08-06T07:20:32.443Z,33.28
2018-08-06T07:21:13.255Z,33.35
2018-08-06T07:21:54.038Z,33.39
2018-08-06T07:22:34.765Z,33.38
2018-08-06T07:23:15.502Z,33.37
2018-08-06T07:23:56.293Z,33.38
2018-08-06T07:24:37.155Z,33.47
2018-08-06T07:25:17.980Z,33.49
2018-08-06T07:25:58.825Z,33.47
2018-08-06T07:26:39.545Z,33.51
2018-08-06T07:27:20.324Z,33.49
2018-08-06T07:28:02.631Z,33.53
2018-08-06T07:28:43.464Z,33.56
2018-08-06T07:29:24.246Z,33.65
2018-08-06T07:30:05.051Z,33.61
2018-08-06T07:30:45.875Z,33.65
2018-08-06T07:31:26.665Z,33.78
2018-08-06T07:32:07.509Z,33.76
2018-08-06T07:32:48.278Z,33.84
2018-08-06T07:33:29.082Z,33.93
2018-08-06T07:34:09.841Z,34.08
2018-08-06T07:34:50.598Z,34.12
2018-08-06T07:35:31.455Z,34.22
2018-08-06T07:36:12.262Z,34.28
2018-08-06T07:36:53.090Z,34.49
2018-08-06T07:37:33.838Z,34.44
2018-08-06T07:38:14.656Z,34.46
2018-08-06T07:38:55.522Z,34.5
2018-08-06T07:39:36.307Z,34.62
2018-08-06T07:40:17.051Z,34.56
2018-08-06T07:40:57.773Z,34.58
2018-08-06T07:41:38.605Z,34.58
2018-08-06T07:42:19.402Z,34.62
2018-08-06T07:43:00.138Z,34.56
2018-08-06T07:43:40.924Z,34.65
2018-08-06T07:44:21.728Z,34.65
2018-08-06T07:45:02.513Z,34.7
2018-08-06T07:45:43.314Z,34.75
2018-08-06T07:46:24.104Z,34.75
2018-08-06T07:47:05.047Z,34.82
2018-08-06T07:47:45.793Z,34.82
2018-08-06T07:48:26.555Z,34.82
2018-08-06T07:49:07.311Z,34.77
2018-08-06T07:49:48.086Z,34.77
2018-08-06T07:50:28.883Z,34.77
2018-08-06T07:51:09.787Z,34.78
2018-08-06T07:51:50.654Z,34.77
2018-08-06T07:52:31.387Z,34.69
2018-08-06T07:53:12.148Z,34.62
2018-08-06T07:53:52.889Z,34.53
2018-08-06T07:54:33.671Z,34.58
2018-08-06T07:55:14.498Z,34.61
2018-08-06T07:55:55.196Z,34.53
2018-08-06T07:56:36.025Z,34.46
2018-08-06T07:57:16.880Z,34.52
2018-08-06T07:57:57.674Z,34.53
2018-08-06T07:58:38.489Z,34.47
2018-08-06T07:59:19.183Z,34.47
2018-08-06T07:59:59.983Z,34.52
2018-08-06T08:00:40.772Z,34.39
2018-08-06T08:01:21.667Z,34.28
2018-08-06T08:02:02.495Z,34.32
2018-08-06T08:02:43.278Z,34.3
2018-08-06T08:03:24.008Z,34.19
2018-08-06T08:04:04.890Z,33.87
2018-08-06T08:04:45.686Z,33.78
2018-08-06T08:05:26.444Z,33.81
2018-08-06T08:06:07.262Z,33.82
2018-08-06T08:06:48.013Z,33.82
2018-08-06T08:07:28.795Z,33.93
2018-08-06T08:08:09.605Z,34.05
2018-08-06T08:08:50.434Z,34.02
2018-08-06T08:09:31.229Z,34.08
2018-08-06T08:10:11.975Z,34.09
2018-08-06T08:10:52.699Z,34.08
2018-08-06T08:11:33.465Z,34.02
2018-08-06T08:12:14.272Z,33.9
2018-08-06T08:12:55.066Z,33.93
2018-08-06T08:13:35.798Z,33.87
2018-08-06T08:14:16.642Z,33.75
2018-08-06T08:14:57.526Z,33.75
2018-08-06T08:15:38.434Z,33.66
2018-08-06T08:16:19.179Z,33.65
2018-08-06T08:16:59.935Z,33.66
2018-08-06T08:17:40.768Z,33.66
2018-08-06T08:18:21.504Z,33.65
2018-08-06T08:19:02.270Z,33.65
2018-08-06T08:19:43.047Z,33.56
2018-08-06T08:20:23.997Z,33.41
2018-08-06T08:21:04.632Z,33.57
2018-08-06T08:21:45.345Z,33.51
2018-08-06T08:22:26.196Z,33.39
2018-08-06T08:23:06.985Z,33.34
2018-08-06T08:23:47.899Z,33.04
2018-08-06T08:24:28.642Z,32.82
2018-08-06T08:25:09.531Z,32.56
2018-08-06T08:25:50.234Z,32.57
2018-08-06T08:26:31.074Z,32.85
2018-08-06T08:27:11.907Z,32.94
2018-08-06T08:27:52.843Z,33.12
2018-08-06T08:28:33.705Z,33.18
2018-08-06T08:29:14.459Z,33.03
2018-08-06T08:29:55.361Z,33.04
2018-08-06T08:30:36.213Z,33.07
2018-08-06T08:31:16.988Z,32.77
2018-08-06T08:31:57.697Z,32.66
2018-08-06T08:32:38.436Z,32.5
2018-08-06T08:33:19.195Z,32.55
2018-08-06T08:34:00.033Z,32.63
2018-08-06T08:34:40.742Z,32.57
2018-08-06T08:35:21.543Z,32.45
2018-08-06T08:36:02.323Z,32.35
2018-08-06T08:36:43.041Z,32.52
2018-08-06T08:37:23.766Z,32.62
2018-08-06T08:38:04.624Z,32.56
2018-08-06T08:38:45.386Z,32.56
2018-08-06T08:39:26.163Z,32.63
2018-08-06T08:40:07.035Z,32.57
2018-08-06T08:40:47.823Z,32.62
2018-08-06T08:41:28.712Z,32.66
2018-08-06T08:42:09.591Z,32.72
2018-08-06T08:42:50.352Z,32.81
2018-08-06T08:43:31.146Z,32.78
2018-08-06T08:44:11.929Z,32.78
2018-08-06T08:44:52.746Z,32.77
2018-08-06T08:45:33.617Z,32.84
2018-08-06T08:46:14.411Z,32.84
2018-08-06T08:46:55.148Z,32.57